Time;durP1;ratioP1;P1;durP2;ratioP2;P2;SDS_P1;SDS_P2;PMS_P1;PMS_P2;Temp;Humidity;BMP_temperature;BMP_pressure;BME280_temperature;BME280_humidity;BME280_pressure;Samples;Min_cycle;Max_cycle;Signal;HPM_P1;HPM_P2
2023/09/25 00:01:49;;;;;;;;;;;;;;;24.78;56.52;101066.59;7398276;19;1373;-41
2023/09/25 00:04:24;;;;;;;;;;;;;;;24.78;56.46;101065.75;7399424;19;1620;-41
2023/09/25 00:06:52;;;;;;;;;;;;;;;24.80;56.54;101063.72;7399531;19;1610;-41
2023/09/25 00:09:20;;;;;;;;;;;;;;;24.78;56.69;101054.94;7398145;19;1655;-40
2023/09/25 00:11:48;;;;;;;;;;;;;;;24.78;56.47;101060.34;7398753;19;1435;-40
2023/09/25 00:14:17;;;;;;;;;;;;;;;24.77;56.58;101059.50;7395955;19;1854;-41
2023/09/25 00:16:45;;;;;;;;;;;;;;;24.82;56.30;101067.09;7396591;19;1448;-41
2023/09/25 00:19:14;;;;;;;;;;;;;;;24.79;56.65;101056.66;7399015;19;1465;-41
2023/09/25 00:21:45;;;;;;;;;;;;;;;24.83;56.22;101060.69;7396691;19;1466;-40
2023/09/25 00:24:13;;;;;;;;;;;;;;;24.80;56.11;101055.63;7398412;19;1344;-41
2023/09/25 00:26:41;;;;;;;;;;;;;;;24.85;56.08;101065.91;7396194;19;1387;-41
2023/09/25 00:29:11;;;;;;;;;;;;;;;24.81;56.18;101060.88;7397745;19;1318;-41
2023/09/25 00:31:39;;;;;;;;;;;;;;;24.76;56.28;101065.06;7398014;19;1385;-41
2023/09/25 00:34:07;;;;;;;;;;;;;;;24.78;56.22;101065.75;7397336;19;1861;-41
2023/09/25 00:36:36;;;;;;;;;;;;;;;24.76;56.29;101059.66;7398936;19;1395;-41
2023/09/25 00:39:08;;;;;;;;;;;;;;;24.66;56.60;101053.56;7397192;19;1326;-41
2023/09/25 00:41:36;;;;;;;;;;;;;;;24.71;56.46;101064.72;7398403;19;1686;-41
2023/09/25 00:44:05;;;;;;;;;;;;;;;24.63;56.84;101072.81;7397568;19;1462;-41
2023/09/25 00:46:33;;;;;;;;;;;;;;;24.52;56.98;101061.31;7397414;19;1410;-41
2023/09/25 00:49:02;;;;;;;;;;;;;;;24.53;57.35;101063.00;7397754;19;1421;-40
2023/09/25 00:51:30;;;;;;;;;;;;;;;24.53;57.29;101060.31;7397438;19;1382;-41
2023/09/25 00:53:59;;;;;;;;;;;;;;;24.52;57.44;101058.59;7396810;19;1512;-41
2023/09/25 00:56:30;;;;;;;;;;;;;;;24.51;57.32;101072.28;7397122;19;1473;-41
2023/09/25 00:58:59;;;;;;;;;;;;;;;24.51;57.60;101065.03;7381366;19;1473;-41
2023/09/25 01:01:27;;;;;;;;;;;;;;;24.47;57.69;101052.81;7398585;19;1525;-41
2023/09/25 01:03:56;;;;;;;;;;;;;;;24.51;57.73;101050.66;7397276;19;1578;-41
2023/09/25 01:06:24;;;;;;;;;;;;;;;24.47;57.54;101060.94;7396374;19;1339;-41
2023/09/25 01:08:52;;;;;;;;;;;;;;;24.50;57.67;101068.72;7396347;19;1670;-41
2023/09/25 01:11:21;;;;;;;;;;;;;;;24.45;58.00;101053.97;7397411;19;1410;-40
2023/09/25 01:13:53;;;;;;;;;;;;;;;24.46;57.90;101077.31;7396471;19;1367;-41
2023/09/25 01:16:21;;;;;;;;;;;;;;;24.51;58.01;101062.31;7394634;19;1833;-40
2023/09/25 01:18:50;;;;;;;;;;;;;;;24.48;57.75;101081.53;7396114;19;1650;-41
2023/09/25 01:21:18;;;;;;;;;;;;;;;24.51;57.93;101078.56;7397809;19;1554;-41
2023/09/25 01:23:49;;;;;;;;;;;;;;;24.48;58.26;101061.78;7396318;19;1734;-41
2023/09/25 01:26:17;;;;;;;;;;;;;;;24.44;58.05;101063.94;7396284;19;1745;-41
2023/09/25 01:28:45;;;;;;;;;;;;;;;24.43;58.33;101062.25;7395216;19;1658;-41
2023/09/25 01:31:14;;;;;;;;;;;;;;;24.40;58.26;101068.84;7396949;19;1434;-41
2023/09/25 01:33:42;;;;;;;;;;;;;;;24.41;58.33;101054.31;7394004;19;1782;-41
2023/09/25 01:36:11;;;;;;;;;;;;;;;24.42;58.33;101079.50;7394617;19;1853;-41
2023/09/25 01:38:40;;;;;;;;;;;;;;;24.41;58.51;101053.47;7394440;19;1790;-41
2023/09/25 01:41:10;;;;;;;;;;;;;;;24.48;58.09;101069.88;7395501;19;1628;-40
2023/09/25 01:43:39;;;;;;;;;;;;;;;24.49;58.16;101064.31;7395883;19;1524;-41
2023/09/25 01:46:07;;;;;;;;;;;;;;;24.45;58.06;101053.97;7395523;19;1386;-40
2023/09/25 01:48:35;;;;;;;;;;;;;;;24.39;58.29;101050.06;7394354;19;1585;-41
2023/09/25 01:51:10;;;;;;;;;;;;;;;24.37;58.29;101049.38;7395752;19;1458;-41
2023/09/25 01:53:38;;;;;;;;;;;;;;;24.43;58.11;101073.06;7395892;19;1567;-41
2023/09/25 01:56:16;;;;;;;;;;;;;;;24.45;58.15;101057.53;7393797;19;1841;-41
2023/09/25 01:58:44;;;;;;;;;;;;;;;24.43;58.15;101083.88;7377335;19;1571;-40
2023/09/25 02:01:13;;;;;;;;;;;;;;;24.48;57.98;101086.94;7395812;19;1402;-41
2023/09/25 02:03:43;;;;;;;;;;;;;;;24.52;57.93;101090.19;7394267;19;1777;-41
2023/09/25 02:06:11;;;;;;;;;;;;;;;24.48;58.36;101092.34;7392359;19;1690;-41
2023/09/25 02:08:40;;;;;;;;;;;;;;;24.46;58.15;101077.31;7391379;19;1592;-41
2023/09/25 02:11:08;;;;;;;;;;;;;;;24.46;58.28;101082.72;7395696;19;1932;-40
2023/09/25 02:13:39;;;;;;;;;;;;;;;24.48;58.30;101086.94;7394439;19;1505;-41
2023/09/25 02:16:08;;;;;;;;;;;;;;;24.47;58.31;101089.81;7393072;19;1851;-41
2023/09/25 02:18:37;;;;;;;;;;;;;;;24.53;57.99;101089.19;7395181;19;1706;-41
2023/09/25 02:21:06;;;;;;;;;;;;;;;24.51;58.14;101081.25;7394381;19;1718;-41
2023/09/25 02:23:35;;;;;;;;;;;;;;;24.51;58.11;101081.25;7394352;19;1705;-40
2023/09/25 02:26:03;;;;;;;;;;;;;;;24.51;58.26;101094.78;7393895;19;1735;-41
2023/09/25 02:28:32;;;;;;;;;;;;;;;24.42;58.55;101082.19;7395744;19;1468;-41
2023/09/25 02:31:02;;;;;;;;;;;;;;;24.45;58.19;101098.06;7394472;19;1580;-41
2023/09/25 02:33:31;;;;;;;;;;;;;;;24.46;58.25;101098.94;7392257;19;1620;-41
2023/09/25 02:36:05;;;;;;;;;;;;;;;24.49;58.20;101093.19;7393727;19;1842;-40
2023/09/25 02:38:33;;;;;;;;;;;;;;;24.52;57.86;101101.03;7394471;19;1855;-41
2023/09/25 02:41:01;;;;;;;;;;;;;;;24.54;58.17;101105.25;7395041;19;1473;-41
2023/09/25 02:43:30;;;;;;;;;;;;;;;24.51;58.14;101097.47;7392123;19;1722;-40
2023/09/25 02:45:58;;;;;;;;;;;;;;;24.48;58.12;101105.03;7400426;19;1338;-40
2023/09/25 02:48:29;;;;;;;;;;;;;;;24.53;57.82;101111.69;7400690;19;1453;-41
2023/09/25 02:50:57;;;;;;;;;;;;;;;24.51;57.88;101102.88;7400366;19;1703;-41
2023/09/25 02:53:25;;;;;;;;;;;;;;;24.55;58.03;101109.66;7399603;19;1778;-41
2023/09/25 02:55:54;;;;;;;;;;;;;;;24.58;57.75;101097.66;7398574;19;1840;-42
2023/09/25 02:58:22;;;;;;;;;;;;;;;24.59;57.79;101120.97;7398005;19;1302;-41
2023/09/25 03:00:50;;;;;;;;;;;;;;;24.61;57.37;101137.88;7384653;19;1348;-41
2023/09/25 03:03:19;;;;;;;;;;;;;;;24.60;57.85;101123.50;7398698;19;1420;-41
2023/09/25 03:05:49;;;;;;;;;;;;;;;24.56;57.69;101124.84;7400520;19;1615;-41
2023/09/25 03:08:18;;;;;;;;;;;;;;;24.56;57.56;101134.81;7400002;19;1678;-41
2023/09/25 03:10:46;;;;;;;;;;;;;;;24.60;57.81;101145.13;7397173;19;1811;-40
2023/09/25 03:13:14;;;;;;;;;;;;;;;24.58;57.69;101143.63;7398803;19;1591;-41
2023/09/25 03:15:43;;;;;;;;;;;;;;;24.58;57.65;101141.75;7399715;19;1889;-40
2023/09/25 03:18:12;;;;;;;;;;;;;;;24.61;57.78;101152.25;7398682;19;1706;-40
2023/09/25 03:20:41;;;;;;;;;;;;;;;24.62;57.67;101150.41;7395589;19;1782;-41
2023/09/25 03:23:12;;;;;;;;;;;;;;;24.64;57.58;101142.13;7399625;19;1436;-41
2023/09/25 03:25:42;;;;;;;;;;;;;;;24.63;57.70;101146.69;7399141;19;1424;-41
2023/09/25 03:28:11;;;;;;;;;;;;;;;24.67;57.70;101160.72;7399657;19;1373;-41
2023/09/25 03:30:39;;;;;;;;;;;;;;;24.70;57.65;101160.41;7399492;19;1400;-40
2023/09/25 03:33:09;;;;;;;;;;;;;;;24.66;57.59;101165.28;7397646;19;1408;-40
2023/09/25 03:35:38;;;;;;;;;;;;;;;24.65;57.37;101154.63;7398552;19;1891;-40
2023/09/25 03:38:08;;;;;;;;;;;;;;;24.70;57.36;101171.22;7399655;19;1426;-41
2023/09/25 03:40:39;;;;;;;;;;;;;;;24.68;57.45;101181.34;7398133;19;1522;-41
2023/09/25 03:43:07;;;;;;;;;;;;;;;24.57;57.76;101172.53;7398953;19;1286;-41
2023/09/25 03:45:36;;;;;;;;;;;;;;;24.56;57.57;101173.53;7399379;19;1297;-40
2023/09/25 03:48:04;;;;;;;;;;;;;;;24.64;57.61;101178.13;7397355;19;1330;-41
2023/09/25 03:50:32;;;;;;;;;;;;;;;24.55;57.76;101181.78;7396481;19;1740;-40
2023/09/25 03:53:02;;;;;;;;;;;;;;;24.60;57.93;101188.41;7395378;19;1528;-40
2023/09/25 03:55:30;;;;;;;;;;;;;;;24.63;57.64;101186.38;7395737;19;1841;-41
2023/09/25 03:58:01;;;;;;;;;;;;;;;24.53;58.32;101187.38;7395764;19;1242;-41
2023/09/25 04:00:30;;;;;;;;;;;;;;;24.51;58.32;101194.81;7383124;19;1808;-41
2023/09/25 04:02:58;;;;;;;;;;;;;;;24.59;57.92;101197.53;7397558;19;1374;-41
2023/09/25 04:05:26;;;;;;;;;;;;;;;24.70;57.66;101204.50;7398704;19;1666;-41
2023/09/25 04:07:55;;;;;;;;;;;;;;;24.66;57.58;101226.63;7397810;19;1509;-41
2023/09/25 04:10:23;;;;;;;;;;;;;;;24.58;57.94;101222.88;7398278;19;1266;-40
2023/09/25 04:12:51;;;;;;;;;;;;;;;24.54;57.83;101226.91;7395773;19;1269;-41
2023/09/25 04:15:22;;;;;;;;;;;;;;;24.59;57.78;101237.22;7399104;19;1848;-41
2023/09/25 04:17:52;;;;;;;;;;;;;;;24.61;57.81;101224.41;7397231;19;1423;-41
2023/09/25 04:20:24;;;;;;;;;;;;;;;24.67;57.83;101225.63;7399045;19;1599;-41
2023/09/25 04:22:52;;;;;;;;;;;;;;;24.59;58.29;101227.28;7400387;19;1661;-41
2023/09/25 04:25:21;;;;;;;;;;;;;;;24.54;58.43;101226.91;7398797;19;1476;-41
2023/09/25 04:27:50;;;;;;;;;;;;;;;24.60;58.18;101217.31;7400018;19;1715;-40
2023/09/25 04:30:19;;;;;;;;;;;;;;;24.54;58.59;101215.25;7397918;19;1367;-41
2023/09/25 04:32:53;;;;;;;;;;;;;;;24.37;59.56;101220.56;7398367;19;1631;-41
2023/09/25 04:35:22;;;;;;;;;;;;;;;24.31;59.35;101213.09;7398382;19;1873;-41
2023/09/25 04:37:50;;;;;;;;;;;;;;;24.30;59.30;101224.06;7397905;19;1370;-41
2023/09/25 04:40:30;;;;;;;;;;;;;;;24.37;59.67;101230.50;7396267;19;1482;-41
2023/09/25 04:43:00;;;;;;;;;;;;;;;24.37;59.33;101236.78;7395590;19;1337;-41
2023/09/25 04:45:29;;;;;;;;;;;;;;;24.45;59.59;101240.50;7395138;19;1270;-41
2023/09/25 04:48:00;;;;;;;;;;;;;;;24.59;59.63;101231.81;7395398;19;1244;-41
2023/09/25 04:50:28;;;;;;;;;;;;;;;24.68;59.29;101235.44;7397183;19;1469;-41
2023/09/25 04:52:57;;;;;;;;;;;;;;;24.49;59.39;101223.81;7394368;19;1305;-41
2023/09/25 04:55:25;;;;;;;;;;;;;;;24.37;59.34;101227.78;7394233;19;1842;-41
2023/09/25 04:57:53;;;;;;;;;;;;;;;24.11;59.61;101244.84;7396859;19;1154;-41
2023/09/25 05:00:24;;;;;;;;;;;;;;;23.99;59.83;101236.19;7381491;19;1616;-41
2023/09/25 05:02:52;;;;;;;;;;;;;;;24.01;59.31;101236.00;7397412;19;1537;-41
2023/09/25 05:05:24;;;;;;;;;;;;;;;23.87;59.26;101237.41;7395912;19;1527;-41
2023/09/25 05:07:53;;;;;;;;;;;;;;;23.84;59.18;101226.09;7392662;19;1400;-48
2023/09/25 05:10:22;;;;;;;;;;;;;;;23.89;58.63;101231.84;7392237;19;1575;-41
2023/09/25 05:12:50;;;;;;;;;;;;;;;23.90;58.28;101229.00;7389652;19;1465;-43
2023/09/25 05:15:19;;;;;;;;;;;;;;;23.90;58.24;101247.06;7393630;19;1385;-51
2023/09/25 05:17:48;;;;;;;;;;;;;;;23.93;57.64;101247.59;7390908;19;1837;-42
2023/09/25 05:20:18;;;;;;;;;;;;;;;23.95;57.88;101258.25;7392011;19;1367;-43
2023/09/25 05:22:50;;;;;;;;;;;;;;;24.08;57.12;101253.28;7396087;19;1325;-43
2023/09/25 05:25:18;;;;;;;;;;;;;;;24.11;57.07;101244.00;7393404;19;1421;-43
2023/09/25 05:27:47;;;;;;;;;;;;;;;24.19;56.83;101265.69;7395591;19;1773;-43
2023/09/25 05:30:17;;;;;;;;;;;;;;;24.22;56.73;101265.38;7395146;19;1817;-43
2023/09/25 05:32:46;;;;;;;;;;;;;;;24.17;56.86;101256.88;7395794;19;1291;-43
2023/09/25 05:35:14;;;;;;;;;;;;;;;24.30;56.54;101268.13;7393605;19;1430;-43
2023/09/25 05:37:43;;;;;;;;;;;;;;;24.34;56.43;101241.63;7394885;19;1842;-44
2023/09/25 05:40:20;;;;;;;;;;;;;;;24.27;56.85;101252.22;7394978;19;1499;-43
2023/09/25 05:42:49;;;;;;;;;;;;;;;24.32;56.73;101249.91;7396973;19;1232;-43
2023/09/25 05:45:20;;;;;;;;;;;;;;;24.13;56.69;101250.97;7394776;19;1390;-40
2023/09/25 05:47:48;;;;;;;;;;;;;;;23.73;57.44;101254.97;7392686;19;1831;-40
2023/09/25 05:50:17;;;;;;;;;;;;;;;23.13;58.54;101273.59;7393790;19;1567;-39
2023/09/25 05:52:45;;;;;;;;;;;;;;;23.09;58.56;101273.03;7393776;19;1471;-40
2023/09/25 05:55:13;;;;;;;;;;;;;;;23.03;58.54;101279.03;7394978;19;1480;-40
2023/09/25 05:57:45;;;;;;;;;;;;;;;23.11;58.52;101270.19;7394390;19;1843;-39
2023/09/25 06:00:18;;;;;;;;;;;;;;;23.06;59.02;101285.97;7375893;19;2439;-39
2023/09/25 06:02:47;;;;;;;;;;;;;;;22.96;58.79;101289.56;7396733;19;1480;-39
2023/09/25 06:05:15;;;;;;;;;;;;;;;22.55;60.05;101286.28;7394266;19;1573;-40
2023/09/25 06:07:44;;;;;;;;;;;;;;;22.91;59.37;101270.25;7389302;19;1862;-40
2023/09/25 06:10:13;;;;;;;;;;;;;;;23.28;58.11;101272.09;7393181;19;1302;-40
2023/09/25 06:12:44;;;;;;;;;;;;;;;23.33;57.87;101277.03;7388832;19;1482;-40
2023/09/25 06:15:10;;;;;;;;;;;;;;;23.53;57.77;101269.63;7395320;19;1328;-43
2023/09/25 06:17:38;;;;;;;;;;;;;;;23.59;57.32;101279.81;7392957;19;1859;-39
2023/09/25 06:20:14;;;;;;;;;;;;;;;23.67;57.18;101273.66;7399012;19;1156;-41
2023/09/25 06:22:43;;;;;;;;;;;;;;;23.74;57.14;101289.09;7401987;19;1337;-41
2023/09/25 06:25:16;;;;;;;;;;;;;;;23.68;57.01;101284.31;7401738;19;1694;-41
2023/09/25 06:27:48;;;;;;;;;;;;;;;23.75;56.98;101289.94;7401732;19;1301;-40
2023/09/25 06:30:19;;;;;;;;;;;;;;;23.90;56.84;101282.19;7402141;19;1401;-41
2023/09/25 06:32:47;;;;;;;;;;;;;;;23.82;56.85;101283.78;7400855;19;1398;-40
2023/09/25 06:35:15;;;;;;;;;;;;;;;23.81;56.89;101282.13;7401405;19;1393;-40
2023/09/25 06:37:43;;;;;;;;;;;;;;;23.77;57.04;101288.81;7400056;19;1860;-40
2023/09/25 06:40:15;;;;;;;;;;;;;;;23.80;56.81;101288.50;7399027;19;1428;-40
2023/09/25 06:42:44;;;;;;;;;;;;;;;23.87;56.67;101299.53;7398808;19;1332;-39
2023/09/25 06:45:15;;;;;;;;;;;;;;;24.05;56.34;101286.00;7400122;19;1277;-40
2023/09/25 06:47:46;;;;;;;;;;;;;;;24.12;56.20;101281.69;7400412;19;1413;-40
2023/09/25 06:50:15;;;;;;;;;;;;;;;24.17;56.15;101300.13;7398035;19;1476;-40
2023/09/25 06:52:43;;;;;;;;;;;;;;;24.14;56.28;101290.47;7398050;19;1765;-40
2023/09/25 06:55:12;;;;;;;;;;;;;;;24.16;56.05;101293.03;7396569;19;1300;-40
2023/09/25 06:57:40;;;;;;;;;;;;;;;24.19;56.23;101290.88;7400445;19;1827;-37
2023/09/25 07:00:09;;;;;;;;;;;;;;;24.22;56.09;101290.53;7385571;19;1486;-37
2023/09/25 07:02:40;;;;;;;;;;;;;;;24.16;56.00;101298.44;7400883;19;1404;-37
2023/09/25 07:05:09;;;;;;;;;;;;;;;24.20;56.31;101302.53;7397341;19;1303;-37
2023/09/25 07:07:37;;;;;;;;;;;;;;;24.31;56.22;101298.72;7390742;19;1552;-37
2023/09/25 07:10:09;;;;;;;;;;;;;;;24.30;55.97;101299.72;7394103;19;1270;-37
2023/09/25 07:12:37;;;;;;;;;;;;;;;24.34;55.90;101290.28;7394570;19;1369;-37
2023/09/25 07:15:06;;;;;;;;;;;;;;;24.37;55.82;101303.47;7394558;19;1571;-38
2023/09/25 07:17:34;;;;;;;;;;;;;;;24.42;55.74;101303.88;7395288;19;2491;-37
2023/09/25 07:20:06;;;;;;;;;;;;;;;24.50;55.88;101303.06;7395890;19;1338;-37
2023/09/25 07:22:34;;;;;;;;;;;;;;;24.29;56.27;101311.53;7400263;19;1270;-37
2023/09/25 07:25:02;;;;;;;;;;;;;;;24.32;56.62;101297.72;7399512;19;1671;-40
2023/09/25 07:27:32;;;;;;;;;;;;;;;24.37;56.46;101296.25;7398883;19;1428;-41
2023/09/25 07:30:01;;;;;;;;;;;;;;;24.40;56.35;101290.50;7398693;19;1934;-41
2023/09/25 07:32:29;;;;;;;;;;;;;;;24.43;56.74;101292.03;7398519;19;1298;-41
2023/09/25 07:34:58;;;;;;;;;;;;;;;24.43;56.93;101316.34;7397787;19;1393;-40
2023/09/25 07:37:28;;;;;;;;;;;;;;;24.56;56.25;101306.00;7398210;19;1847;-41
2023/09/25 07:39:57;;;;;;;;;;;;;;;24.48;56.39;101303.22;7396398;19;1467;-38
2023/09/25 07:42:26;;;;;;;;;;;;;;;24.51;57.58;101321.00;7399201;19;1347;-38
2023/09/25 07:44:55;;;;;;;;;;;;;;;24.35;57.31;101300.09;7395602;19;1333;-37
2023/09/25 07:47:23;;;;;;;;;;;;;;;24.46;57.16;101297.13;7398129;19;1362;-40
2023/09/25 07:49:51;;;;;;;;;;;;;;;24.54;56.88;101313.44;7398391;19;1345;-38
2023/09/25 07:52:20;;;;;;;;;;;;;;;24.47;57.81;101306.06;7396147;19;1343;-37
2023/09/25 07:54:51;;;;;;;;;;;;;;;24.49;56.54;101304.06;7395845;19;1392;-37
2023/09/25 07:57:22;;;;;;;;;;;;;;;24.51;56.35;101305.66;7395373;19;1858;-41
2023/09/25 07:59:51;;;;;;;;;;;;;;;24.53;57.69;101295.53;7395394;19;1192;-41
2023/09/25 08:02:20;;;;;;;;;;;;;;;24.55;57.64;101303.47;7390967;19;1366;-41
2023/09/25 08:04:48;;;;;;;;;;;;;;;24.52;57.16;101310.03;7394959;19;2111;-41
2023/09/25 08:07:18;;;;;;;;;;;;;;;24.50;56.69;101300.38;7396419;19;1381;-40
2023/09/25 08:09:46;;;;;;;;;;;;;;;24.49;56.63;101307.63;7396062;19;1380;-41
2023/09/25 08:12:17;;;;;;;;;;;;;;;24.58;56.66;101292.34;7397297;19;1256;-41
2023/09/25 08:14:45;;;;;;;;;;;;;;;24.51;56.27;101280.44;7396482;19;1401;-41
2023/09/25 08:17:14;;;;;;;;;;;;;;;24.58;55.95;101293.19;7394285;19;1840;-40
2023/09/25 08:19:42;;;;;;;;;;;;;;;24.61;55.93;101286.59;7396451;19;1474;-41
2023/09/25 08:22:11;;;;;;;;;;;;;;;24.49;56.17;101288.72;7397773;19;1398;-41
2023/09/25 08:24:40;;;;;;;;;;;;;;;24.50;56.55;101285.03;7395921;19;1897;-41
2023/09/25 08:27:09;;;;;;;;;;;;;;;24.61;55.77;101279.34;7394308;19;1405;-41
2023/09/25 08:29:40;;;;;;;;;;;;;;;24.64;56.06;101272.75;7394839;19;1480;-41
2023/09/25 08:32:08;;;;;;;;;;;;;;;24.72;56.45;101288.19;7392810;19;1323;-42
2023/09/25 08:34:37;;;;;;;;;;;;;;;24.68;56.09;101265.19;7393781;19;1427;-41
2023/09/25 08:37:06;;;;;;;;;;;;;;;24.67;55.81;101282.41;7393408;19;1857;-41
2023/09/25 08:39:35;;;;;;;;;;;;;;;24.67;55.98;101277.00;7392763;19;1693;-41
2023/09/25 08:42:04;;;;;;;;;;;;;;;24.59;56.03;101267.84;7394030;19;1707;-40
2023/09/25 08:44:32;;;;;;;;;;;;;;;24.67;55.98;101279.69;7394347;19;1317;-41
2023/09/25 08:47:03;;;;;;;;;;;;;;;24.66;55.45;101270.75;7390618;19;1251;-44
2023/09/25 08:49:33;;;;;;;;;;;;;;;24.65;55.33;101273.59;7393928;19;1290;-41
2023/09/25 08:52:01;;;;;;;;;;;;;;;24.76;54.95;101266.06;7396258;19;1376;-41
2023/09/25 08:54:29;;;;;;;;;;;;;;;24.69;55.37;101272.28;7392018;19;1372;-41
2023/09/25 08:56:58;;;;;;;;;;;;;;;24.75;55.88;101271.63;7388292;19;1843;-41
2023/09/25 08:59:26;;;;;;;;;;;;;;;24.81;54.38;101258.31;7392744;19;1595;-41
2023/09/25 09:01:55;;;;;;;;;;;;;;;24.83;54.78;101274.41;7288768;19;13285;-40
2023/09/25 09:04:27;;;;;;;;;;;;;;;24.94;53.93;101265.97;7395702;19;1326;-41
2023/09/25 09:06:56;;;;;;;;;;;;;;;24.85;54.14;101264.25;7394437;19;1335;-41
2023/09/25 09:09:24;;;;;;;;;;;;;;;24.81;53.60;101247.50;7383205;19;1273;-41
2023/09/25 09:11:52;;;;;;;;;;;;;;;24.92;53.72;101251.75;7395316;19;2422;-41
2023/09/25 09:14:34;;;;;;;;;;;;;;;24.94;54.20;101244.31;7396224;19;1497;-41
2023/09/25 09:17:04;;;;;;;;;;;;;;;24.93;53.34;101256.19;7393295;19;1857;-40
2023/09/25 09:19:38;;;;;;;;;;;;;;;25.07;53.56;101264.66;7389463;19;1459;-41
2023/09/25 09:22:08;;;;;;;;;;;;;;;25.06;53.11;101258.41;7394789;19;1493;-41
2023/09/25 09:24:39;;;;;;;;;;;;;;;25.04;52.64;101254.19;7388455;19;1427;-39
2023/09/25 09:27:07;;;;;;;;;;;;;;;25.03;52.64;101264.16;7389685;19;1169;-40
2023/09/25 09:29:37;;;;;;;;;;;;;;;25.20;52.78;101243.41;7387503;19;1887;-40
2023/09/25 09:32:06;;;;;;;;;;;;;;;25.27;52.55;101244.47;7389002;19;1597;-40
2023/09/25 09:34:34;;;;;;;;;;;;;;;25.30;52.08;101237.88;7388526;19;1351;-40
2023/09/25 09:37:05;;;;;;;;;;;;;;;25.12;52.68;101255.03;7387568;19;1853;-41
2023/09/25 09:39:37;;;;;;;;;;;;;;;25.10;53.31;101253.53;7390277;19;1674;-41
2023/09/25 09:42:08;;;;;;;;;;;;;;;25.20;53.08;101246.09;7390261;19;1397;-41
2023/09/25 09:44:37;;;;;;;;;;;;;;;25.22;53.11;101241.41;7387524;19;1334;-43
2023/09/25 09:47:06;;;;;;;;;;;;;;;25.28;52.58;101242.59;7390106;19;1410;-41
2023/09/25 09:49:37;;;;;;;;;;;;;;;25.34;53.06;101245.50;7393851;19;1415;-41
2023/09/25 09:52:09;;;;;;;;;;;;;;;25.27;52.58;101249.03;7394035;19;1557;-41
2023/09/25 09:54:38;;;;;;;;;;;;;;;25.44;52.31;101226.38;7393942;19;1693;-41
2023/09/25 09:57:06;;;;;;;;;;;;;;;25.51;51.28;101234.72;7402961;19;1845;-41
2023/09/25 09:59:34;;;;;;;;;;;;;;;25.32;52.13;101225.84;7398739;19;1605;-41
2023/09/25 10:02:03;;;;;;;;;;;;;;;25.26;51.37;101233.81;7384234;19;1515;-41
2023/09/25 10:04:32;;;;;;;;;;;;;;;25.34;52.63;101229.25;7392982;19;1400;-41
2023/09/25 10:07:04;;;;;;;;;;;;;;;25.36;52.06;101232.63;7396185;19;1455;-40
2023/09/25 10:09:35;;;;;;;;;;;;;;;25.26;52.06;101220.28;7397046;19;1294;-40
2023/09/25 10:12:04;;;;;;;;;;;;;;;25.42;51.99;101244.66;7399040;19;1753;-40
2023/09/25 10:14:40;;;;;;;;;;;;;;;25.32;52.63;101231.28;7398217;19;1284;-41
2023/09/25 10:17:09;;;;;;;;;;;;;;;25.36;52.68;101229.09;7395841;19;1542;-40
2023/09/25 10:19:50;;;;;;;;;;;;;;;25.43;50.49;101232.84;7396650;19;1488;-40
2023/09/25 10:22:21;;;;;;;;;;;;;;;25.45;49.84;101221.84;7397051;19;1225;-40
2023/09/25 10:25:01;;;;;;;;;;;;;;;25.54;50.07;101223.53;7402431;19;1348;-40
2023/09/25 10:27:31;;;;;;;;;;;;;;;25.46;50.54;101216.25;7401888;19;1454;-41
2023/09/25 10:30:16;;;;;;;;;;;;;;;25.54;49.94;101224.38;7398741;19;1807;-41
2023/09/25 10:32:44;;;;;;;;;;;;;;;25.53;48.96;101208.31;7394769;19;1372;-40
2023/09/25 10:35:28;;;;;;;;;;;;;;;25.53;50.28;101208.31;7397574;19;1558;-40
2023/09/25 10:38:09;;;;;;;;;;;;;;;25.55;50.24;101203.56;7401647;19;1849;-41
2023/09/25 10:40:40;;;;;;;;;;;;;;;25.37;50.52;101201.84;7401089;19;1290;-39
2023/09/25 10:43:09;;;;;;;;;;;;;;;25.43;49.76;101194.06;7400767;19;1585;-40
2023/09/25 10:45:38;;;;;;;;;;;;;;;25.49;49.95;101205.09;7401097;19;1795;-39
2023/09/25 10:48:07;;;;;;;;;;;;;;;25.54;49.92;101209.97;7400999;19;1693;-40
2023/09/25 10:50:37;;;;;;;;;;;;;;;25.50;49.19;101206.75;7399404;19;1791;-40
2023/09/25 10:53:06;;;;;;;;;;;;;;;25.46;49.82;101201.84;7400130;19;1574;-40
2023/09/25 10:55:35;;;;;;;;;;;;;;;25.39;49.10;101198.97;7399762;19;1601;-39
2023/09/25 10:58:07;;;;;;;;;;;;;;;25.49;48.91;101193.41;7399394;19;1841;-40
2023/09/25 11:00:37;;;;;;;;;;;;;;;25.37;49.46;101212.69;7400391;19;1616;-40
2023/09/25 11:03:06;;;;;;;;;;;;;;;25.50;47.40;101209.47;7384444;19;1665;-40
2023/09/25 11:05:36;;;;;;;;;;;;;;;25.38;48.38;101203.53;7397420;19;1331;-40
2023/09/25 11:08:06;;;;;;;;;;;;;;;25.35;49.68;101200.34;7397203;19;1554;-40
2023/09/25 11:10:36;;;;;;;;;;;;;;;25.22;48.46;101187.28;7398516;19;1578;-40
2023/09/25 11:13:07;;;;;;;;;;;;;;;25.39;47.85;101180.03;7396953;19;1794;-40
2023/09/25 11:15:37;;;;;;;;;;;;;;;25.34;48.46;101185.94;7396255;19;1407;-40
2023/09/25 11:18:06;;;;;;;;;;;;;;;25.31;49.47;101183.56;7391981;19;1855;-40
2023/09/25 11:20:37;;;;;;;;;;;;;;;25.39;54.32;101182.75;7395994;19;1616;-40
2023/09/25 11:23:08;;;;;;;;;;;;;;;25.37;49.87;101191.03;7397199;19;1692;-40
2023/09/25 11:25:43;;;;;;;;;;;;;;;25.55;48.59;101195.44;7399358;19;1593;-40
2023/09/25 11:28:17;;;;;;;;;;;;;;;25.52;51.25;101176.81;7399085;19;1440;-39
2023/09/25 11:30:46;;;;;;;;;;;;;;;25.40;50.12;101171.72;7395640;19;1372;-40
2023/09/25 11:33:18;;;;;;;;;;;;;;;25.40;51.30;101185.25;7392901;19;1685;-40
2023/09/25 11:35:49;;;;;;;;;;;;;;;25.49;51.02;101185.28;7390825;19;1611;-40
2023/09/25 11:38:20;;;;;;;;;;;;;;;25.42;51.61;101159.88;7390960;19;1850;-41
2023/09/25 11:40:50;;;;;;;;;;;;;;;25.34;52.69;101164.28;7395927;19;1522;-40
2023/09/25 11:43:23;;;;;;;;;;;;;;;25.26;52.88;101180.50;7393887;19;1392;-40
2023/09/25 11:45:52;;;;;;;;;;;;;;;25.20;52.24;101173.88;7400023;19;1644;-40
2023/09/25 11:48:22;;;;;;;;;;;;;;;25.16;52.36;101156.28;7395921;19;1367;-40
2023/09/25 11:50:50;;;;;;;;;;;;;;;25.18;51.98;101158.81;7393962;19;1413;-40
2023/09/25 11:53:18;;;;;;;;;;;;;;;25.20;51.77;101165.75;7393265;19;1308;-40
2023/09/25 11:55:48;;;;;;;;;;;;;;;25.22;51.13;101171.03;7394239;19;1410;-40
2023/09/25 11:58:17;;;;;;;;;;;;;;;25.14;52.10;101152.03;7393976;19;1852;-40
2023/09/25 12:00:48;;;;;;;;;;;;;;;25.20;51.39;101159.50;7395582;19;1213;-40
2023/09/25 12:03:16;;;;;;;;;;;;;;;25.19;51.34;101161.38;7381032;19;1914;-40
2023/09/25 12:05:44;;;;;;;;;;;;;;;25.13;51.50;101175.56;7398263;19;1405;-40
2023/09/25 12:08:13;;;;;;;;;;;;;;;25.13;51.59;101167.44;7399349;19;1340;-40
2023/09/25 12:10:41;;;;;;;;;;;;;;;25.13;51.44;101147.66;7399291;19;1340;-40
2023/09/25 12:13:10;;;;;;;;;;;;;;;25.17;50.97;101149.84;7395716;19;1375;-40
2023/09/25 12:15:38;;;;;;;;;;;;;;;25.12;50.85;101141.38;7397706;19;1367;-40
2023/09/25 12:18:10;;;;;;;;;;;;;;;25.12;51.25;101140.53;7394583;19;1845;-39
2023/09/25 12:20:41;;;;;;;;;;;;;;;25.18;51.20;101140.72;7394701;19;1268;-40
2023/09/25 12:23:09;;;;;;;;;;;;;;;25.13;51.37;101147.66;7396746;19;1405;-40
2023/09/25 12:25:38;;;;;;;;;;;;;;;25.12;50.96;101138.69;7398188;19;1315;-40
2023/09/25 12:28:07;;;;;;;;;;;;;;;25.09;51.08;101130.91;7399579;19;1152;-40
2023/09/25 12:30:36;;;;;;;;;;;;;;;25.07;51.22;101135.63;7395964;19;1399;-41
2023/09/25 12:33:05;;;;;;;;;;;;;;;25.10;50.79;101131.75;7396111;19;1339;-40
2023/09/25 12:35:36;;;;;;;;;;;;;;;25.11;50.24;101130.72;7397611;19;1359;-40
2023/09/25 12:38:05;;;;;;;;;;;;;;;25.12;50.48;101113.47;7398004;19;1841;-41
2023/09/25 12:40:33;;;;;;;;;;;;;;;25.17;49.74;101119.25;7396390;19;1736;-40
2023/09/25 12:43:01;;;;;;;;;;;;;;;25.18;49.23;101132.59;7398210;19;1652;-41
2023/09/25 12:45:29;;;;;;;;;;;;;;;25.13;49.30;101123.31;7398133;19;1400;-40
2023/09/25 12:47:58;;;;;;;;;;;;;;;25.12;49.27;101135.13;7397268;19;1696;-40
2023/09/25 12:50:26;;;;;;;;;;;;;;;25.17;49.20;101135.50;7397194;19;1507;-41
2023/09/25 12:52:57;;;;;;;;;;;;;;;25.12;48.75;101132.44;7398235;19;1540;-41
2023/09/25 12:55:30;;;;;;;;;;;;;;;25.21;48.22;101134.13;7397426;19;1713;-40
2023/09/25 12:57:58;;;;;;;;;;;;;;;25.11;48.10;101128.00;7398102;19;1600;-40
2023/09/25 13:00:26;;;;;;;;;;;;;;;25.10;47.85;101121.75;7397370;19;1858;-40